Accueil
METAR-TAF:

METAR-TAF

Aéroports :

Base aérienne 116 Luxeuil-Saint Sauveur

Luxeuil-les-Bains, France

latitude: 47-47N, longitude: 006-21E, altitude: 278 m

Observation

Le bulletin a été fait il y a 39 minutes, à 00:00 UTC
Vent 7 kt de ouest/nord-ouest
Température 3°C
Humidité 81%
Pression 1017 hPa
Visibilité 10 km ou plus
Nuages fragmentés à une hauteur de 3000 ft
Nuages fragmentés à une hauteur de 3600 ft
Nuages fragmentés à une hauteur de 4700 ft

METAR: LFSX 280000Z AUTO 29007KT 9999 BKN030 BKN036 BKN047 03/M00 Q1017

Heure: 01:39 (00:39 UTC)

Prévision

Le bulletin a été fait il y a 4 heures et 39 minutes, à 20:00 UTC
Prévision valable du 27 à 21 UTC au 28 à 21 UTC
Vent 12 kt de ouest
Visibilité 10 km ou plus
Nuages fragmentés à une hauteur de 2700 ft
Evoluant progressivement
du 28 à 19 UTC au 28 à 21 UTC
Visibilité: 4900 m
pluie

TAF: LFSX 272000Z 2721/2821 26012KT 9999 BKN027 BECMG 2819/2821 4900 RA

Observations et prévisions météorologiques de plus de 4000 aéroports (messages METAR et TAF).

Les stations disponibles sont représentées par des disques jaunes et rouges sur la carte.

Passer la souris dessus pour voir le nom de la station.

Cliquer dessus pour voir les observations et prévisions météorologiques.

Pour changer de carte: cliquez sur les boutons verts avec une croix noire pour zoomer, sur le bouton vert avec un tiret pour effectuer un zoom arrière, ou sur les flèches vertes pour les cartes adjacentes.


METAR-TAF: